Uni Wealth — VRFV4 — position and weather

sailwx.info

Track history (hours):
 
Tides and Currents Weather Stations Pressure Air Temp Water Temp Dewpoint Dewpoint Depression Visibility Wind Speed Wind Dir Waves Ship Positions

Uni Wealth

Last reported at 2015-Mar-28 21:10 UTC. Time now 2015-Apr-01 03:11 UTC.
Position N 35°50' E 032°52'.

Length 170 m; draft 8.9 m.

Type: Cargo ship. MMSI: 477621200.

Date/timePositionNaut miles runAvg speedWind from/ knotsBaromVisibWave heightAir tempDewpointWater temp
2015-Mar-28 21:10N 35°50' E 032°52'  
2015-Mar-25 18:08N 36°12' E 015°05'911.8
2015-Mar-25 17:23N 36°15' E 014°54'1211.8
2015-Mar-25 16:21N 36°18' E 014°40'2312.1
2015-Mar-25 14:27N 36°23' E 014°12'2611.9
2015-Mar-25 12:17N 36°31' E 013°42'1012.1
2015-Mar-25 11:30N 36°35' E 013°31'1112.0
2015-Mar-25 10:33N 36°39' E 013°18'51812.3
2015-Mar-23 16:25N 36°58' E 002°32'3712.8
2015-Mar-23 13:33N 36°51' E 001°47'33813.0
2015-Mar-22 11:33N 36°00' W 005°09'1515.5
2015-Mar-22 10:34N 35°57' W 005°28'22611.8
2015-Mar-21 15:19N 37°29' W 009°46'1312.8
2015-Mar-21 14:17N 37°42' W 009°49'4012.9
2015-Mar-21 11:10N 38°22' W 010°01'812.8
2015-Mar-21 10:33N 38°29' W 010°03'1312.9
2015-Mar-21 09:33N 38°42' W 010°06'  
Track history (hours):
 
Tides and Currents Weather Stations Pressure Air Temp Water Temp Dewpoint Dewpoint Depression Visibility Wind Speed Wind Dir Waves Ship Positions

Uni Wealth

Last reported at 2015-Mar-28 21:10 UTC. Time now 2015-Apr-01 03:11 UTC.
Position N 35°50' E 032°52'.

Length 170 m; draft 8.9 m.

Type: Cargo ship. MMSI: 477621200.

Date/timePositionNaut miles runAvg speedWind from/ knotsBaromVisibWave heightAir tempDewpointWater temp
2015-Mar-28 21:10N 35°50' E 032°52'  
2015-Mar-25 18:08N 36°12' E 015°05'911.8
2015-Mar-25 17:23N 36°15' E 014°54'1211.8
2015-Mar-25 16:21N 36°18' E 014°40'2312.1
2015-Mar-25 14:27N 36°23' E 014°12'2611.9
2015-Mar-25 12:17N 36°31' E 013°42'1012.1
2015-Mar-25 11:30N 36°35' E 013°31'1112.0
2015-Mar-25 10:33N 36°39' E 013°18'51812.3
2015-Mar-23 16:25N 36°58' E 002°32'3712.8
2015-Mar-23 13:33N 36°51' E 001°47'33813.0
2015-Mar-22 11:33N 36°00' W 005°09'1515.5
2015-Mar-22 10:34N 35°57' W 005°28'22611.8
2015-Mar-21 15:19N 37°29' W 009°46'1312.8
2015-Mar-21 14:17N 37°42' W 009°49'4012.9
2015-Mar-21 11:10N 38°22' W 010°01'812.8
2015-Mar-21 10:33N 38°29' W 010°03'1312.9
2015-Mar-21 09:33N 38°42' W 010°06'  

Dump ship's entire track history